createdAt,value
2023-02-02T00:01:36.780Z,6.27
2023-02-02T00:04:04.523Z,7.00
2023-02-02T00:06:33.342Z,6.77
2023-02-02T00:09:05.256Z,6.40
2023-02-02T00:11:32.280Z,5.73
2023-02-02T00:14:01.364Z,6.30
2023-02-02T00:16:47.327Z,6.33
2023-02-02T00:19:23.223Z,6.10
2023-02-02T00:21:56.691Z,5.37
2023-02-02T00:24:24.124Z,5.60
2023-02-02T00:27:03.133Z,5.50
2023-02-02T00:29:35.959Z,5.67
2023-02-02T00:32:04.964Z,4.90
2023-02-02T00:34:35.077Z,5.73
2023-02-02T00:37:04.087Z,5.40
2023-02-02T00:39:34.000Z,5.63
2023-02-02T00:42:16.256Z,5.63
2023-02-02T00:45:01.729Z,6.00
2023-02-02T00:47:29.674Z,5.57
2023-02-02T00:50:04.355Z,4.93
2023-02-02T00:52:40.794Z,5.90
2023-02-02T00:55:08.455Z,5.60
2023-02-02T00:57:35.454Z,4.63
2023-02-02T01:00:02.638Z,5.03
2023-02-02T01:02:29.892Z,5.57
2023-02-02T01:04:56.907Z,5.33
2023-02-02T01:07:27.084Z,3.97
2023-02-02T01:10:00.105Z,4.77
2023-02-02T01:12:28.231Z,4.70
2023-02-02T01:15:02.432Z,4.57
2023-02-02T01:17:29.547Z,6.07
2023-02-02T01:19:57.574Z,5.00
2023-02-02T01:22:31.462Z,5.20
2023-02-02T01:25:01.986Z,5.23
2023-02-02T01:27:30.054Z,5.23
2023-02-02T01:30:00.107Z,5.53
2023-02-02T01:32:28.960Z,4.93
2023-02-02T01:34:57.221Z,4.90
2023-02-02T01:37:36.279Z,4.77
2023-02-02T01:40:03.511Z,3.57
2023-02-02T01:42:38.150Z,4.80
2023-02-02T01:45:14.162Z,4.23
2023-02-02T01:47:52.926Z,4.17
2023-02-02T01:50:23.164Z,4.23
2023-02-02T01:52:53.884Z,4.70
2023-02-02T01:55:24.114Z,3.97
2023-02-02T01:58:13.660Z,4.23
2023-02-02T02:00:47.170Z,3.40
2023-02-02T02:03:20.575Z,3.87
2023-02-02T02:06:02.049Z,3.30
2023-02-02T02:08:39.758Z,4.07
2023-02-02T02:11:08.401Z,4.20
2023-02-02T02:13:57.625Z,3.77
2023-02-02T02:16:42.577Z,4.67
2023-02-02T02:20:06.573Z,4.00
2023-02-02T02:23:13.612Z,4.67
2023-02-02T02:26:20.068Z,4.73
2023-02-02T02:29:19.385Z,4.90
2023-02-02T02:32:14.079Z,4.37
2023-02-02T02:35:03.068Z,5.10
2023-02-02T02:37:38.805Z,5.53
2023-02-02T02:40:21.231Z,4.53
2023-02-02T02:42:55.791Z,5.97
2023-02-02T02:45:25.311Z,4.43
2023-02-02T02:47:54.413Z,4.70
2023-02-02T02:50:24.326Z,4.67
2023-02-02T02:53:06.396Z,4.60
2023-02-02T02:55:51.830Z,4.33
2023-02-02T02:59:06.481Z,3.80
2023-02-02T03:01:44.411Z,3.37
2023-02-02T03:04:22.350Z,5.03
2023-02-02T03:07:16.193Z,3.90
2023-02-02T03:09:46.319Z,4.83
2023-02-02T03:12:13.428Z,3.60
2023-02-02T03:14:50.518Z,3.53
2023-02-02T03:17:17.517Z,3.70
2023-02-02T03:19:47.785Z,3.40
2023-02-02T03:22:14.891Z,3.40
2023-02-02T03:24:43.857Z,3.50
2023-02-02T03:27:13.831Z,3.70
2023-02-02T03:29:40.976Z,3.83
2023-02-02T03:32:17.105Z,3.77
2023-02-02T03:34:50.258Z,3.87
2023-02-02T03:37:23.221Z,3.37
2023-02-02T03:39:52.716Z,3.13
2023-02-02T03:42:20.699Z,4.23
2023-02-02T03:44:55.721Z,4.43
2023-02-02T03:47:30.021Z,3.57
2023-02-02T03:50:00.471Z,4.03
2023-02-02T03:52:30.525Z,4.20
2023-02-02T03:55:00.957Z,3.60
2023-02-02T03:57:33.956Z,3.77
2023-02-02T04:00:01.098Z,4.13
2023-02-02T04:02:28.165Z,3.93
2023-02-02T04:04:55.354Z,3.80
2023-02-02T04:07:23.420Z,3.13
2023-02-02T04:10:03.159Z,4.03
2023-02-02T04:12:30.325Z,3.73
2023-02-02T04:15:03.096Z,2.93
2023-02-02T04:17:37.775Z,2.67
2023-02-02T04:20:06.107Z,4.27
2023-02-02T04:22:36.046Z,3.97
2023-02-02T04:25:02.990Z,3.77
2023-02-02T04:27:34.104Z,3.30
2023-02-02T04:30:11.970Z,2.93
2023-02-02T04:32:38.778Z,3.70
2023-02-02T04:35:06.548Z,3.90
2023-02-02T04:37:42.618Z,3.07
2023-02-02T04:40:12.293Z,3.50
2023-02-02T04:42:39.497Z,2.73
2023-02-02T04:45:08.224Z,3.10
2023-02-02T04:47:38.298Z,3.77
2023-02-02T04:50:06.840Z,4.17
2023-02-02T04:52:34.013Z,3.07
2023-02-02T04:55:04.535Z,3.57
2023-02-02T04:57:32.432Z,3.10
2023-02-02T04:59:59.270Z,3.90
2023-02-02T05:02:26.150Z,3.37
2023-02-02T05:04:52.989Z,3.63
2023-02-02T05:07:19.966Z,6.30
2023-02-02T05:09:46.793Z,3.83
2023-02-02T05:12:13.587Z,6.80
2023-02-02T05:14:40.738Z,5.80
2023-02-02T05:17:13.644Z,4.47
2023-02-02T05:19:40.947Z,4.27
2023-02-02T05:22:11.053Z,3.93
2023-02-02T05:24:38.273Z,3.37
2023-02-02T05:27:08.374Z,3.50
2023-02-02T05:29:35.308Z,3.77
2023-02-02T05:32:19.348Z,3.17
2023-02-02T05:34:46.200Z,3.10
2023-02-02T05:37:13.068Z,3.93
2023-02-02T05:39:40.175Z,3.77
2023-02-02T05:42:07.030Z,3.93
2023-02-02T05:44:33.878Z,3.97
2023-02-02T05:47:01.044Z,4.63
2023-02-02T05:49:29.996Z,5.30
2023-02-02T05:51:59.291Z,4.63
2023-02-02T05:54:26.581Z,4.07
2023-02-02T05:56:55.928Z,6.43
2023-02-02T05:59:24.474Z,5.07
2023-02-02T06:01:51.551Z,3.60
2023-02-02T06:04:20.539Z,4.37
2023-02-02T06:06:49.514Z,4.07
2023-02-02T06:09:19.738Z,4.77
2023-02-02T06:11:47.795Z,4.00
2023-02-02T06:14:20.794Z,4.73
2023-02-02T06:16:47.945Z,3.70
2023-02-02T06:19:17.012Z,4.40
2023-02-02T06:21:54.487Z,4.87
2023-02-02T06:24:24.595Z,4.20
2023-02-02T06:26:58.108Z,5.53
2023-02-02T06:29:25.684Z,4.87
2023-02-02T06:31:52.804Z,6.10
2023-02-02T06:34:21.942Z,4.87
2023-02-02T06:36:53.139Z,4.80
2023-02-02T06:39:22.180Z,4.57
2023-02-02T06:41:52.109Z,4.50
2023-02-02T06:44:21.049Z,4.77
2023-02-02T06:46:51.302Z,4.20
2023-02-02T06:49:19.341Z,4.17
2023-02-02T06:51:48.447Z,4.90
2023-02-02T06:54:15.732Z,4.30
2023-02-02T06:56:42.603Z,6.10
2023-02-02T06:59:11.574Z,5.73
2023-02-02T07:01:38.611Z,5.27
2023-02-02T07:04:09.061Z,5.70
2023-02-02T07:06:36.253Z,6.00
2023-02-02T07:09:10.417Z,5.20
2023-02-02T07:11:42.883Z,8.93
2023-02-02T07:14:13.445Z,4.93
2023-02-02T07:16:46.334Z,4.53
2023-02-02T07:19:13.414Z,4.30
2023-02-02T07:21:40.379Z,6.63
2023-02-02T07:24:07.860Z,5.67
2023-02-02T07:26:36.336Z,7.57
2023-02-02T07:29:04.692Z,6.80
2023-02-02T07:31:33.571Z,4.50
2023-02-02T07:34:04.180Z,4.33
2023-02-02T07:36:31.234Z,2.70
2023-02-02T07:38:59.915Z,3.40
2023-02-02T07:41:37.025Z,3.03
2023-02-02T07:44:06.166Z,2.50
2023-02-02T07:46:34.521Z,2.80
2023-02-02T07:49:17.476Z,2.90
2023-02-02T07:51:50.491Z,3.13
2023-02-02T07:54:20.586Z,2.90
2023-02-02T07:56:48.686Z,2.37
2023-02-02T07:59:17.635Z,2.77
2023-02-02T08:01:44.619Z,3.00
2023-02-02T08:04:18.778Z,2.03
2023-02-02T08:06:48.427Z,2.97
2023-02-02T08:09:17.440Z,2.77
2023-02-02T08:11:48.581Z,3.07
2023-02-02T08:14:21.405Z,3.67
2023-02-02T08:16:51.387Z,3.13
2023-02-02T08:19:19.563Z,2.90
2023-02-02T08:21:46.589Z,2.73
2023-02-02T08:24:15.590Z,2.80
2023-02-02T08:26:46.004Z,2.90
2023-02-02T08:29:17.300Z,3.17
2023-02-02T08:31:46.702Z,3.10
2023-02-02T08:34:16.083Z,4.00
2023-02-02T08:36:46.053Z,3.67
2023-02-02T08:39:14.475Z,4.00
2023-02-02T08:41:42.589Z,4.90
2023-02-02T08:44:13.938Z,5.63
2023-02-02T08:46:42.683Z,5.30
2023-02-02T08:49:13.300Z,4.13
2023-02-02T08:51:41.763Z,4.23
2023-02-02T08:54:11.868Z,3.60
2023-02-02T08:56:40.845Z,3.90
2023-02-02T08:59:08.861Z,4.50
2023-02-02T09:01:36.233Z,3.47
2023-02-02T09:04:06.620Z,3.50
2023-02-02T09:06:40.941Z,2.43
2023-02-02T09:09:10.152Z,3.10
2023-02-02T09:11:43.664Z,3.60
2023-02-02T09:14:14.358Z,3.30
2023-02-02T09:16:41.357Z,3.23
2023-02-02T09:19:08.384Z,2.20
2023-02-02T09:21:37.296Z,2.43
2023-02-02T09:24:13.130Z,3.57
2023-02-02T09:26:44.456Z,2.20
2023-02-02T09:29:20.799Z,3.23
2023-02-02T09:31:50.165Z,3.53
2023-02-02T09:34:17.604Z,3.57
2023-02-02T09:36:48.814Z,3.60
2023-02-02T09:39:18.470Z,4.20
2023-02-02T09:42:09.628Z,4.33
2023-02-02T09:44:46.078Z,3.40
2023-02-02T09:47:18.268Z,3.33
2023-02-02T09:49:59.247Z,6.73
2023-02-02T09:52:40.563Z,4.90
2023-02-02T09:55:28.930Z,7.63
2023-02-02T09:58:41.364Z,8.43
2023-02-02T10:01:20.724Z,8.60
2023-02-02T10:04:15.094Z,7.33
2023-02-02T10:06:43.896Z,8.07
2023-02-02T10:09:14.677Z,8.80
2023-02-02T10:11:50.841Z,5.47
2023-02-02T10:14:39.119Z,5.00
2023-02-02T10:17:24.503Z,5.07
2023-02-02T10:20:06.145Z,6.70
2023-02-02T10:22:34.308Z,7.30
2023-02-02T10:25:13.505Z,5.03
2023-02-02T10:27:55.968Z,7.37
2023-02-02T10:30:50.177Z,4.87
2023-02-02T10:33:29.399Z,4.80
2023-02-02T10:36:08.602Z,6.27
2023-02-02T10:38:50.050Z,7.83
2023-02-02T10:41:43.406Z,6.47
2023-02-02T10:44:28.238Z,5.47
2023-02-02T10:46:58.216Z,5.73
2023-02-02T10:49:28.913Z,5.27
2023-02-02T10:52:11.045Z,5.73
2023-02-02T10:54:54.914Z,5.10
2023-02-02T10:57:46.326Z,3.47
2023-02-02T11:00:39.392Z,4.87
2023-02-02T11:03:10.124Z,4.57
2023-02-02T11:05:59.358Z,3.63
2023-02-02T11:08:40.784Z,5.40
2023-02-02T11:11:34.448Z,5.60
2023-02-02T11:14:10.178Z,6.30
2023-02-02T11:16:44.309Z,7.30
2023-02-02T11:19:17.139Z,7.03
2023-02-02T11:22:04.776Z,6.20
2023-02-02T11:24:40.907Z,6.73
2023-02-02T11:27:17.196Z,6.40
2023-02-02T11:29:50.767Z,4.70
2023-02-02T11:32:26.648Z,5.40
2023-02-02T11:35:15.872Z,4.97
2023-02-02T11:37:59.423Z,5.17
2023-02-02T11:40:43.991Z,6.10
2023-02-02T11:43:28.490Z,33.43
2023-02-02T11:46:08.160Z,20.80
2023-02-02T11:48:50.468Z,20.30
2023-02-02T11:51:26.334Z,10.50
2023-02-02T11:54:17.064Z,15.33
2023-02-02T11:56:51.281Z,9.33
2023-02-02T11:59:37.920Z,9.30
2023-02-02T12:02:19.602Z,5.17
2023-02-02T12:04:55.674Z,8.60
2023-02-02T12:07:33.787Z,13.17
2023-02-02T12:10:14.625Z,16.83
2023-02-02T12:13:12.121Z,7.33
2023-02-02T12:16:08.782Z,9.30
2023-02-02T12:18:41.740Z,8.17
2023-02-02T12:21:38.523Z,8.53
2023-02-02T12:24:27.557Z,8.80
2023-02-02T12:27:27.388Z,5.23
2023-02-02T12:30:14.677Z,10.00
2023-02-02T12:33:11.842Z,6.23
2023-02-02T12:35:48.979Z,21.63
2023-02-02T12:38:20.079Z,25.23
2023-02-02T12:41:04.649Z,25.40
2023-02-02T12:43:44.575Z,6.03
2023-02-02T12:46:27.180Z,6.20
2023-02-02T12:49:08.043Z,5.83
2023-02-02T12:51:48.833Z,4.03
2023-02-02T12:54:51.618Z,6.43
2023-02-02T12:57:48.082Z,4.83
2023-02-02T13:00:28.800Z,3.17
2023-02-02T13:03:23.779Z,3.60
2023-02-02T13:06:17.034Z,4.80
2023-02-02T13:08:55.853Z,2.77
2023-02-02T13:11:52.833Z,2.40
2023-02-02T13:14:32.659Z,2.13
2023-02-02T13:17:11.948Z,2.20
2023-02-02T13:19:46.562Z,3.23
2023-02-02T13:22:24.608Z,4.67
2023-02-02T13:24:55.493Z,3.17
2023-02-02T13:27:23.939Z,4.50
2023-02-02T13:30:36.700Z,2.83
2023-02-02T13:33:20.472Z,2.97
2023-02-02T13:36:29.447Z,3.23
2023-02-02T13:39:01.596Z,20.70
2023-02-02T13:41:31.468Z,5.33
2023-02-02T13:44:18.351Z,7.10
2023-02-02T13:47:03.693Z,8.53
2023-02-02T13:49:40.210Z,8.23
2023-02-02T13:52:46.697Z,9.70
2023-02-02T13:55:28.606Z,4.10
2023-02-02T13:58:39.136Z,4.60
2023-02-02T14:01:11.121Z,2.80
2023-02-02T14:03:43.624Z,4.97
2023-02-02T14:06:19.072Z,5.13
2023-02-02T14:09:16.659Z,2.90
2023-02-02T14:12:02.324Z,6.47
2023-02-02T14:14:38.196Z,5.47
2023-02-02T14:17:19.444Z,8.57
2023-02-02T14:20:02.764Z,5.27
2023-02-02T14:22:41.258Z,6.90
2023-02-02T14:25:33.889Z,8.47
2023-02-02T14:28:02.854Z,9.07
2023-02-02T14:30:34.551Z,7.10
2023-02-02T14:33:37.154Z,5.60
2023-02-02T14:36:12.768Z,4.13
2023-02-02T14:39:04.387Z,7.07
2023-02-02T14:42:23.844Z,4.47
2023-02-02T14:45:12.887Z,4.47
2023-02-02T14:47:52.153Z,5.20
2023-02-02T14:50:31.021Z,2.27
2023-02-02T14:53:03.212Z,4.57
2023-02-02T14:55:51.557Z,14.13
2023-02-02T14:58:41.177Z,7.93
2023-02-02T15:01:17.359Z,6.17
2023-02-02T15:03:48.664Z,4.37
2023-02-02T15:06:40.762Z,2.90
2023-02-02T15:09:29.287Z,10.93
2023-02-02T15:12:02.285Z,10.47
2023-02-02T15:14:44.700Z,8.13
2023-02-02T15:17:34.678Z,5.90
2023-02-02T15:20:27.118Z,5.23
2023-02-02T15:23:08.282Z,3.50
2023-02-02T15:26:01.576Z,5.10
2023-02-02T15:28:51.220Z,4.73
2023-02-02T15:31:23.382Z,2.33
2023-02-02T15:33:56.592Z,2.47
2023-02-02T15:36:31.209Z,3.77
2023-02-02T15:39:19.680Z,3.33
2023-02-02T15:42:23.360Z,4.47
2023-02-02T15:44:55.981Z,9.10
2023-02-02T15:47:39.675Z,4.97
2023-02-02T15:50:29.029Z,2.57
2023-02-02T15:52:58.781Z,3.33
2023-02-02T15:55:35.376Z,3.67
2023-02-02T15:58:03.728Z,4.33
2023-02-02T16:00:34.546Z,4.83
2023-02-02T16:03:04.671Z,3.13
2023-02-02T16:05:36.974Z,4.93
2023-02-02T16:08:12.271Z,6.37
2023-02-02T16:10:46.809Z,11.27
2023-02-02T16:13:28.876Z,11.07
2023-02-02T16:15:59.639Z,10.90
2023-02-02T16:18:30.366Z,13.10
2023-02-02T16:21:00.993Z,6.03
2023-02-02T16:23:36.213Z,5.53
2023-02-02T16:26:06.050Z,5.20
2023-02-02T16:28:35.056Z,8.03
2023-02-02T16:31:05.654Z,5.87
2023-02-02T16:33:46.450Z,5.97
2023-02-02T16:36:31.536Z,5.50
2023-02-02T16:39:01.575Z,5.53
2023-02-02T16:41:34.314Z,5.87
2023-02-02T16:44:30.189Z,7.67
2023-02-02T16:47:00.327Z,4.80
2023-02-02T16:49:28.796Z,6.80
2023-02-02T16:52:09.811Z,8.07
2023-02-02T16:54:50.358Z,4.73
2023-02-02T16:57:34.040Z,7.63
2023-02-02T17:00:04.816Z,15.03
2023-02-02T17:02:48.276Z,9.37
2023-02-02T17:05:32.381Z,13.87
2023-02-02T17:08:06.095Z,6.27
2023-02-02T17:10:42.988Z,14.23
2023-02-02T17:13:33.534Z,19.00
2023-02-02T17:16:02.713Z,5.90
2023-02-02T17:18:47.302Z,5.63
2023-02-02T17:21:25.309Z,6.10
2023-02-02T17:24:00.213Z,5.10
2023-02-02T17:26:27.755Z,7.23
2023-02-02T17:29:00.350Z,6.73
2023-02-02T17:31:32.698Z,4.37
2023-02-02T17:34:02.902Z,5.50
2023-02-02T17:36:31.033Z,5.37
2023-02-02T17:38:57.801Z,5.57
2023-02-02T17:41:24.608Z,5.80
2023-02-02T17:43:51.504Z,4.17
2023-02-02T17:46:18.329Z,4.97
2023-02-02T17:48:45.696Z,4.83
2023-02-02T17:51:16.496Z,4.00
2023-02-02T17:53:46.646Z,3.20
2023-02-02T17:56:13.733Z,4.30
2023-02-02T17:58:40.901Z,4.77
2023-02-02T18:01:12.509Z,4.37
2023-02-02T18:03:41.582Z,3.80
2023-02-02T18:06:10.975Z,3.43
2023-02-02T18:08:39.017Z,4.97
2023-02-02T18:11:12.551Z,5.33
2023-02-02T18:13:46.946Z,6.60
2023-02-02T18:16:14.404Z,7.97
2023-02-02T18:18:44.501Z,10.47
2023-02-02T18:21:14.191Z,17.77
2023-02-02T18:23:41.357Z,5.43
2023-02-02T18:26:13.462Z,3.97
2023-02-02T18:28:41.596Z,3.73
2023-02-02T18:31:12.581Z,5.60
2023-02-02T18:33:41.736Z,5.57
2023-02-02T18:36:17.731Z,5.17
2023-02-02T18:38:51.640Z,5.97
2023-02-02T18:41:21.701Z,6.07
2023-02-02T18:43:48.511Z,5.47
2023-02-02T18:46:16.778Z,6.73
2023-02-02T18:48:44.913Z,6.70
2023-02-02T18:51:16.917Z,3.37
2023-02-02T18:53:48.996Z,4.20
2023-02-02T18:56:18.032Z,4.10
2023-02-02T18:58:48.131Z,2.77
2023-02-02T19:01:18.195Z,2.80
2023-02-02T19:03:53.440Z,2.63
2023-02-02T19:06:40.496Z,2.27
2023-02-02T19:09:08.492Z,3.00
2023-02-02T19:11:39.819Z,3.27
2023-02-02T19:14:16.135Z,3.30
2023-02-02T19:16:45.094Z,3.80
2023-02-02T19:19:26.434Z,5.27
2023-02-02T19:21:58.570Z,3.67
2023-02-02T19:24:28.283Z,5.60
2023-02-02T19:26:55.385Z,4.23
2023-02-02T19:29:24.989Z,5.00
2023-02-02T19:32:07.542Z,4.33
2023-02-02T19:34:34.501Z,4.60
2023-02-02T19:37:26.009Z,4.17
2023-02-02T19:40:10.810Z,3.23
2023-02-02T19:42:43.968Z,5.30
2023-02-02T19:45:35.205Z,3.93
2023-02-02T19:48:14.075Z,3.83
2023-02-02T19:50:41.636Z,4.30
2023-02-02T19:53:29.848Z,3.57
2023-02-02T19:55:56.678Z,3.30
2023-02-02T19:58:37.112Z,3.87
2023-02-02T20:01:14.970Z,5.67
2023-02-02T20:03:43.346Z,3.33
2023-02-02T20:06:35.920Z,3.53
2023-02-02T20:09:11.977Z,10.70
2023-02-02T20:11:40.888Z,9.93
2023-02-02T20:14:20.014Z,7.63
2023-02-02T20:16:53.340Z,6.97
2023-02-02T20:19:27.121Z,7.77
2023-02-02T20:21:54.275Z,6.30
2023-02-02T20:24:37.348Z,3.77
2023-02-02T20:27:25.378Z,7.27
2023-02-02T20:29:54.798Z,5.37
2023-02-02T20:32:25.901Z,5.27
2023-02-02T20:34:54.913Z,5.07
2023-02-02T20:37:31.832Z,5.50
2023-02-02T20:40:23.580Z,5.43
2023-02-02T20:42:50.971Z,5.57
2023-02-02T20:45:18.416Z,5.80
2023-02-02T20:47:45.834Z,4.93
2023-02-02T20:50:14.780Z,3.60
2023-02-02T20:52:41.916Z,3.30
2023-02-02T20:55:09.976Z,3.40
2023-02-02T20:57:38.909Z,3.93
2023-02-02T21:00:08.425Z,2.70
2023-02-02T21:02:35.271Z,5.10
2023-02-02T21:05:02.145Z,4.57
2023-02-02T21:07:29.319Z,4.53
2023-02-02T21:09:56.105Z,4.60
2023-02-02T21:12:25.474Z,4.13
2023-02-02T21:14:55.570Z,3.97
2023-02-02T21:17:22.479Z,3.70
2023-02-02T21:19:49.417Z,4.67
2023-02-02T21:22:16.355Z,4.13
2023-02-02T21:24:43.375Z,3.50
2023-02-02T21:27:10.305Z,4.90
2023-02-02T21:29:37.200Z,3.00
2023-02-02T21:32:04.516Z,2.83
2023-02-02T21:34:31.726Z,4.27
2023-02-02T21:36:59.629Z,2.60
2023-02-02T21:39:35.532Z,2.80
2023-02-02T21:42:08.595Z,3.53
2023-02-02T21:44:40.658Z,3.70
2023-02-02T21:47:19.588Z,3.87
2023-02-02T21:49:46.435Z,3.37
2023-02-02T21:52:16.492Z,3.30
2023-02-02T21:54:44.263Z,3.83
2023-02-02T21:57:22.385Z,3.00
2023-02-02T21:59:54.448Z,3.10
2023-02-02T22:02:35.491Z,4.77
2023-02-02T22:05:17.365Z,6.23
2023-02-02T22:07:47.444Z,4.90
2023-02-02T22:10:39.303Z,4.43
2023-02-02T22:13:34.477Z,4.27
2023-02-02T22:16:02.149Z,5.17
2023-02-02T22:18:29.730Z,3.73
2023-02-02T22:20:56.908Z,4.27
2023-02-02T22:23:29.078Z,3.97
2023-02-02T22:25:59.115Z,3.77
2023-02-02T22:28:52.324Z,3.70
2023-02-02T22:31:21.206Z,3.33
2023-02-02T22:33:50.135Z,2.70
2023-02-02T22:36:17.113Z,4.37
2023-02-02T22:38:44.267Z,4.20
2023-02-02T22:41:13.230Z,3.90
2023-02-02T22:43:43.370Z,2.80
2023-02-02T22:46:13.324Z,3.43
2023-02-02T22:48:42.362Z,5.37
2023-02-02T22:51:11.590Z,3.03
2023-02-02T22:53:41.642Z,4.40
2023-02-02T22:56:08.673Z,3.77
2023-02-02T22:58:39.769Z,3.70
2023-02-02T23:01:07.764Z,3.20
2023-02-02T23:03:40.716Z,5.40
2023-02-02T23:06:10.771Z,4.10
2023-02-02T23:08:37.850Z,4.03
2023-02-02T23:11:04.889Z,4.70
2023-02-02T23:13:31.738Z,3.43
2023-02-02T23:19:48.868Z,3.40
2023-02-02T23:22:18.005Z,3.67
2023-02-02T23:24:46.087Z,2.97
2023-02-02T23:27:13.269Z,3.90
2023-02-02T23:29:46.090Z,3.87
2023-02-02T23:32:31.503Z,2.93
2023-02-02T23:34:59.770Z,3.57
2023-02-02T23:37:28.902Z,3.80
2023-02-02T23:39:56.071Z,4.47
2023-02-02T23:42:25.750Z,3.27
2023-02-02T23:44:55.913Z,3.87
2023-02-02T23:47:26.216Z,4.70
2023-02-02T23:49:53.450Z,4.03
2023-02-02T23:52:20.682Z,3.27
2023-02-02T23:54:49.754Z,2.33
2023-02-02T23:57:18.689Z,4.60
2023-02-02T23:59:47.637Z,3.70
